Monday, November 20, 2017, 7:41 AM GMT
Back to Local

CYWA, Petawawa, Ont.

Location: , , Canada Lat: 45.95
Local Time: 7:41 AM GMT ( 7:41 GMT) Lon: -77.317
Time Zone: GMT Elev: 426 ft

Show me the last for .
Show Decoded

2017-11-20 07:00 METAR CYWA 200700Z AUTO 29007KT 9SM OVC029 M08/M12 A2979 RMK SLP098 =
2017-11-20 06:00 METAR CYWA 200600Z AUTO 28008G15KT 9SM OVC031 M08/M12 A2977 RMK SLP090 =
2017-11-20 05:00 METAR CYWA 200500Z AUTO 29008KT 9SM M07/M12 A2976 RMK SLP086 =
2017-11-20 04:00 METAR CYWA 200400Z AUTO 29010KT 7SM OVC021 M07/M11 A2974 RMK SLP081 =
2017-11-20 03:00 METAR CYWA 200300Z AUTO 29008KT 9SM OVC024 OVC081 M06/M11 A2973 RMK SLP076 =
2017-11-20 02:58 METAR CYWA 200258Z AUTO 29009KT 9SM OVC024 OVC081 M06/M11 A2973 =
2017-11-20 02:18 METAR CYWA 200218Z AUTO 32009KT 9SM SCT018 OVC037 OVC048 OVC081 M06/M10 A2972 =
2017-11-20 02:00 METAR CYWA 200200Z AUTO 32008KT 8SM M06/M09 A2971 RMK SLP070 =
2017-11-20 01:00 METAR CYWA 200100Z AUTO 32011KT 9SM OVC019 OVC067 OVC087 M05/M09 A2969 RMK
                 SLP062 =
2017-11-20 00:25 METAR CYWA 200025Z AUTO 31007KT 9SM OVC023 OVC077 OVC091 M04/M08 A2967 =
2017-11-20 00:00 METAR CYWA 200000Z AUTO 30008G15KT 9SM FEW028 FEW077 OVC091 M04/M08 A2967 RMK
                 SLP055 =
2017-11-19 23:00 METAR CYWA 192300Z AUTO 29009KT 9SM M04/M07 A2964 RMK SLP046 =
2017-11-19 22:00 METAR CYWA 192200Z AUTO 29009KT 9SM M03/M07 A2963 RMK SLP040 =
2017-11-19 21:01 METAR CYWA 192101Z AUTO 30010KT 9SM BKN023 OVC056 M03/M07 A2960 =
2017-11-19 21:00 METAR CYWA 192100Z AUTO 30010KT 9SM BKN025 OVC056 M03/M07 A2960 RMK SLP030 =
2017-11-19 20:35 METAR CYWA 192035Z AUTO 30010G17KT 9SM SCT026 OVC058 M03/M07 A2958 =
2017-11-19 20:00 METAR CYWA 192000Z AUTO 31008G16KT 280V340 7SM -SN M02/M06 A2956 RMK SLP019 =
2017-11-19 19:35 METAR CYWA 191935Z AUTO 29010G17KT 9SM -SN M02/M06 A2955 =
2017-11-19 19:00 METAR CYWA 191900Z AUTO 31011G17KT 9SM M02/M06 A2954 RMK SLP012 =
2017-11-19 18:49 METAR CYWA 191849Z AUTO 30011G19KT 9SM M02/M06 A2954 =
2017-11-19 18:00 METAR CYWA 191800Z AUTO 30010G17KT 9SM M01/M06 A2951 RMK SLP002 =
2017-11-19 17:00 METAR CYWA 191700Z AUTO 29009KT 9SM M01/M04 A2949 RMK SLP995 =
2017-11-19 16:00 METAR CYWA 191600Z AUTO 30011G21KT 9SM M01/M05 A2948 RMK SLP991 =
2017-11-19 15:00 METAR CYWA 191500Z AUTO 31013KT 8SM M02/M05 A2945 RMK SLP981 =
2017-11-19 14:00 METAR CYWA 191400Z AUTO 31012G17KT 9SM M02/M06 A2942 RMK SLP971 =
2017-11-19 13:38 METAR CYWA 191338Z AUTO 31010G18KT 3SM M02/M06 A2941 =
2017-11-19 13:00 METAR CYWA 191300Z AUTO 32015G21KT 1 3/4SM M03/M06 A2939 RMK VSBY VRBL 1.4V4.0
                 SLP960 =
2017-11-19 12:37 METAR CYWA 191237Z AUTO 31012G18KT 2 1/2SM M03/M06 A2938 RMK VSBY VRBL 1.4V5.0 =
2017-11-19 12:00 METAR CYWA 191200Z AUTO 31008G19KT 7SM M03/M06 A2935 RMK SLP946 =
2017-11-19 11:00 METAR CYWA 191100Z AUTO 31009KT 9SM M03/M05 A2931 RMK SLP934 =
2017-11-19 10:49 METAR CYWA 191049Z AUTO 32011G20KT 5SM M03/M06 A2930 =
2017-11-19 10:47 METAR CYWA 191047Z AUTO 32014G20KT 2 1/2SM M03/M05 A2930 RMK VSBY VRBL 2.5V7.0 =
2017-11-19 10:37 METAR CYWA 191037Z AUTO 32014KT 2 1/2SM -SN M03/M05 A2930 =
2017-11-19 10:12 METAR CYWA 191012Z AUTO 32014KT 1 1/4SM -SN M03/M05 A2929 =
2017-11-19 10:04 METAR CYWA 191004Z AUTO 31011G16KT 2 1/2SM -SN M03/M05 A2928 =
2017-11-19 10:00 METAR CYWA 191000Z AUTO 32013KT 1 1/4SM -SN M03/M05 A2928 RMK PCPN 0.5MM PAST HR
                 SLP923 =
2017-11-19 09:49 METAR CYWA 190949Z AUTO 32010G15KT 1SM -SN M03/M04 A2927 =
2017-11-19 09:28 METAR CYWA 190928Z AUTO 34013G20KT 5/8SM -SN M03/M04 A2927 =
2017-11-19 09:25 METAR CYWA 190925Z AUTO 33015G20KT 3/4SM -SN M03/M04 A2926 =
2017-11-19 09:08 METAR CYWA 190908Z AUTO 32012KT 1 1/4SM -SN M03/M04 A2927 =
2017-11-19 09:00 METAR CYWA 190900Z AUTO 32010KT 2SM -SN M02/M04 A2927 RMK SLP920 =
2017-11-19 08:51 METAR CYWA 190851Z AUTO 32011KT 1 5/8SM -SN M02/M04 A2927 =
2017-11-19 08:35 METAR CYWA 190835Z AUTO 32011G16KT 1SM -SN M02/M04 A2927 =
2017-11-19 08:23 METAR CYWA 190823Z AUTO 32012KT 5/8SM -SN M02/M04 A2927 =
2017-11-19 08:00 METAR CYWA 190800Z AUTO 32013KT 1/4SM -SN BKN001 OVC007 M02/M03 A2926 RMK PCPN
                 1.0MM PAST HR SLP917 =

Support USWX by starting your Amazon purchase here.